X  Close Metar Aviation Weather Data     LIPX Verona-Villafranca Valerio Catullo Airport
Temperature
15°C Temperature
14°C Dewpoint
94% Humidity



Wind
3 MPH
5 KM/H
1 M/S
3 KTS



340°
NNW
Current Conditions

Area Thunderstorm Area Thunderstorm
Pressure 1016.93 (hPa) - 30.03 (inHg)
Visibility 6 (mile) - 9.7 (km)
Airport
Airport-code LIPX

Location: Verona-Villafranca Valerio Catullo Airport
Distance: 0 (mi)

Metar:
LIPX 250550Z 34003KT 9999 VCTS FEW020CB SCT030 15/14 Q1017

Time: 25-05-2024 05:50 CEST